createdAt,value
2022-12-19T00:01:28.459Z,57.92
2022-12-19T00:03:59.312Z,61.88
2022-12-19T00:06:27.037Z,50.65
2022-12-19T00:08:55.092Z,59.97
2022-12-19T00:11:23.696Z,66.70
2022-12-19T00:13:50.973Z,59.67
2022-12-19T00:16:24.181Z,65.57
2022-12-19T00:18:54.910Z,64.90
2022-12-19T00:21:24.517Z,57.97
2022-12-19T00:23:51.721Z,62.33
2022-12-19T00:26:32.584Z,59.53
2022-12-19T00:29:01.455Z,47.85
2022-12-19T00:31:30.991Z,66.82
2022-12-19T00:33:58.447Z,54.47
2022-12-19T00:36:30.121Z,63.60
2022-12-19T00:38:59.249Z,61.50
2022-12-19T00:41:28.390Z,49.22
2022-12-19T00:43:57.074Z,61.75
2022-12-19T00:46:24.715Z,64.22
2022-12-19T00:48:51.781Z,53.35
2022-12-19T00:51:21.319Z,58.50
2022-12-19T00:53:49.518Z,63.20
2022-12-19T00:56:19.471Z,60.28
2022-12-19T00:58:47.293Z,62.53
2022-12-19T01:01:44.016Z,51.42
2022-12-19T01:04:31.108Z,67.82
2022-12-19T01:07:02.127Z,61.25
2022-12-19T01:09:31.143Z,52.75
2022-12-19T01:12:17.001Z,66.35
2022-12-19T01:14:43.791Z,57.92
2022-12-19T01:17:10.734Z,61.45
2022-12-19T01:19:43.408Z,57.25
2022-12-19T01:22:12.041Z,54.65
2022-12-19T01:24:39.580Z,53.20
2022-12-19T01:27:06.390Z,50.75
2022-12-19T01:29:33.525Z,48.67
2022-12-19T01:32:03.009Z,52.35
2022-12-19T01:34:29.856Z,58.70
2022-12-19T01:36:56.555Z,46.38
2022-12-19T01:39:23.295Z,51.30
2022-12-19T01:41:51.881Z,56.58
2022-12-19T01:44:18.692Z,58.65
2022-12-19T01:46:50.140Z,50.17
2022-12-19T01:49:25.175Z,46.22
2022-12-19T01:51:53.871Z,52.38
2022-12-19T01:54:25.487Z,50.67
2022-12-19T01:56:55.367Z,48.80
2022-12-19T01:59:45.473Z,48.28
2022-12-19T02:02:19.463Z,56.17
2022-12-19T02:04:47.436Z,47.85
2022-12-19T02:07:16.577Z,52.55
2022-12-19T02:09:46.845Z,52.80
2022-12-19T02:12:14.373Z,59.60
2022-12-19T02:14:41.972Z,57.40
2022-12-19T02:17:26.837Z,47.10
2022-12-19T02:20:08.703Z,49.05
2022-12-19T02:23:02.770Z,44.53
2022-12-19T02:25:44.507Z,49.33
2022-12-19T02:28:30.174Z,45.70
2022-12-19T02:31:17.854Z,49.13
2022-12-19T02:34:08.316Z,62.30
2022-12-19T02:36:42.053Z,49.83
2022-12-19T02:39:17.889Z,56.95
2022-12-19T02:41:54.962Z,41.95
2022-12-19T02:44:42.090Z,50.40
2022-12-19T02:47:10.115Z,66.22
2022-12-19T02:49:38.129Z,47.20
2022-12-19T02:52:30.574Z,49.75
2022-12-19T02:55:07.804Z,61.10
2022-12-19T02:57:40.343Z,59.00
2022-12-19T03:00:20.591Z,34.47
2022-12-19T03:03:02.661Z,48.60
2022-12-19T03:05:48.769Z,45.33
2022-12-19T03:08:43.125Z,47.67
2022-12-19T03:11:14.839Z,43.95
2022-12-19T03:13:51.112Z,51.88
2022-12-19T03:16:17.892Z,51.42
2022-12-19T03:18:45.505Z,60.70
2022-12-19T03:21:25.446Z,51.00
2022-12-19T03:23:54.662Z,56.85
2022-12-19T03:26:24.852Z,34.67
2022-12-19T03:28:57.580Z,50.17
2022-12-19T03:31:29.015Z,48.28
2022-12-19T03:34:00.362Z,49.20
2022-12-19T03:36:36.012Z,50.67
2022-12-19T03:39:06.157Z,55.03
2022-12-19T03:41:55.212Z,50.58
2022-12-19T03:44:26.202Z,50.70
2022-12-19T03:47:02.269Z,55.17
2022-12-19T03:49:29.254Z,48.85
2022-12-19T03:52:10.762Z,25.05
2022-12-19T03:54:44.255Z,60.17
2022-12-19T03:57:20.042Z,62.10
2022-12-19T03:59:56.781Z,47.13
2022-12-19T04:02:25.046Z,47.85
2022-12-19T04:04:55.897Z,53.15
2022-12-19T04:07:24.167Z,54.45
2022-12-19T04:09:53.199Z,55.28
2022-12-19T04:12:25.102Z,54.53
2022-12-19T04:14:52.076Z,56.72
2022-12-19T04:17:37.241Z,53.65
2022-12-19T04:20:16.844Z,64.30
2022-12-19T04:22:47.699Z,60.53
2022-12-19T04:25:19.588Z,55.05
2022-12-19T04:27:51.939Z,52.38
2022-12-19T04:30:19.501Z,57.85
2022-12-19T04:32:47.327Z,63.25
2022-12-19T04:35:14.391Z,60.08
2022-12-19T04:37:41.916Z,58.20
2022-12-19T04:40:10.107Z,63.42
2022-12-19T04:42:37.152Z,66.90
2022-12-19T04:45:05.586Z,59.13
2022-12-19T04:47:33.078Z,66.88
2022-12-19T04:49:59.847Z,50.78
2022-12-19T04:52:27.102Z,56.80
2022-12-19T04:54:53.898Z,61.95
2022-12-19T04:57:20.708Z,57.67
2022-12-19T04:59:47.482Z,58.83
2022-12-19T05:02:14.318Z,57.42
2022-12-19T05:04:41.311Z,49.15
2022-12-19T05:07:08.095Z,63.10
2022-12-19T05:09:37.767Z,59.72
2022-12-19T05:12:04.873Z,57.85
2022-12-19T05:14:31.681Z,53.63
2022-12-19T05:17:01.670Z,46.85
2022-12-19T05:19:28.866Z,52.30
2022-12-19T05:21:55.703Z,60.88
2022-12-19T05:24:22.550Z,47.65
2022-12-19T05:26:49.977Z,52.40
2022-12-19T05:29:17.261Z,52.40
2022-12-19T05:31:44.191Z,62.33
2022-12-19T05:34:11.121Z,55.35
2022-12-19T05:36:37.886Z,54.08
2022-12-19T05:39:04.740Z,55.05
2022-12-19T05:41:31.445Z,49.75
2022-12-19T05:43:58.287Z,54.17
2022-12-19T05:46:25.672Z,51.30
2022-12-19T05:48:52.873Z,57.78
2022-12-19T05:51:19.806Z,60.30
2022-12-19T05:53:46.927Z,52.85
2022-12-19T05:56:16.467Z,56.95
2022-12-19T05:58:44.895Z,70.35
2022-12-19T06:01:30.300Z,55.65
2022-12-19T06:03:57.187Z,59.95
2022-12-19T06:06:26.526Z,60.15
2022-12-19T06:08:57.978Z,57.58
2022-12-19T06:11:26.192Z,62.22
2022-12-19T06:13:53.307Z,59.13
2022-12-19T06:16:21.759Z,54.70
2022-12-19T06:18:48.965Z,59.13
2022-12-19T06:21:22.845Z,53.90
2022-12-19T06:23:49.654Z,61.72
2022-12-19T06:26:20.291Z,57.65
2022-12-19T06:28:51.869Z,59.97
2022-12-19T06:31:20.525Z,59.05
2022-12-19T06:33:47.419Z,56.85
2022-12-19T06:36:29.092Z,49.63
2022-12-19T06:39:00.267Z,44.72
2022-12-19T06:41:46.202Z,56.65
2022-12-19T06:44:15.326Z,65.57
2022-12-19T06:46:42.818Z,56.15
2022-12-19T06:49:11.303Z,54.22
2022-12-19T06:51:40.054Z,53.03
2022-12-19T06:54:06.934Z,50.50
2022-12-19T06:56:38.077Z,52.53
2022-12-19T06:59:06.120Z,53.53
2022-12-19T07:01:57.227Z,55.17
2022-12-19T07:04:32.630Z,54.42
2022-12-19T07:07:00.393Z,59.60
2022-12-19T07:09:28.613Z,61.42
2022-12-19T07:11:55.415Z,50.47
2022-12-19T07:14:22.547Z,57.20
2022-12-19T07:16:52.312Z,57.45
2022-12-19T07:19:20.297Z,57.10
2022-12-19T07:21:47.741Z,62.38
2022-12-19T07:24:15.305Z,56.90
2022-12-19T07:26:43.467Z,49.00
2022-12-19T07:29:11.933Z,56.88
2022-12-19T07:31:38.874Z,55.08
2022-12-19T07:34:05.871Z,58.75
2022-12-19T07:36:32.615Z,56.03
2022-12-19T07:38:59.508Z,55.28
2022-12-19T07:41:26.260Z,50.85
2022-12-19T07:43:53.065Z,48.75
2022-12-19T07:46:19.876Z,51.15
2022-12-19T07:48:46.802Z,64.38
2022-12-19T07:51:13.633Z,53.70
2022-12-19T07:53:40.390Z,46.45
2022-12-19T07:56:07.713Z,50.30
2022-12-19T07:58:34.824Z,51.35
2022-12-19T08:01:01.723Z,52.08
2022-12-19T08:03:28.656Z,57.63
2022-12-19T08:06:01.134Z,50.47
2022-12-19T08:08:28.563Z,44.97
2022-12-19T08:10:55.480Z,44.78
2022-12-19T08:13:22.540Z,54.13
2022-12-19T08:15:49.250Z,51.40
2022-12-19T08:18:16.002Z,44.85
2022-12-19T08:20:46.291Z,56.40
2022-12-19T08:23:13.075Z,46.35
2022-12-19T08:25:40.075Z,60.13
2022-12-19T08:28:06.954Z,46.75
2022-12-19T08:30:33.825Z,56.17
2022-12-19T08:33:00.665Z,48.22
2022-12-19T08:35:27.442Z,50.00
2022-12-19T08:37:54.194Z,45.67
2022-12-19T08:40:21.877Z,46.88
2022-12-19T08:42:50.141Z,53.45
2022-12-19T08:45:19.954Z,49.47
2022-12-19T08:47:46.694Z,46.88
2022-12-19T08:50:14.137Z,49.78
2022-12-19T08:52:41.406Z,50.80
2022-12-19T08:55:10.145Z,46.22
2022-12-19T08:57:36.892Z,48.83
2022-12-19T09:00:05.531Z,48.95
2022-12-19T09:02:33.322Z,47.67
2022-12-19T09:06:03.480Z,45.08
2022-12-19T09:07:46.941Z,46.70
2022-12-19T09:10:13.733Z,47.45
2022-12-19T09:12:41.211Z,47.85
2022-12-19T09:15:08.287Z,46.50
2022-12-19T09:17:35.047Z,47.85
2022-12-19T09:20:02.038Z,49.72
2022-12-19T09:22:29.541Z,51.30
2022-12-19T09:24:56.529Z,46.80
2022-12-19T09:27:24.316Z,47.35
2022-12-19T09:29:51.061Z,53.22
2022-12-19T09:32:17.789Z,47.30
2022-12-19T09:34:44.676Z,45.65
2022-12-19T09:37:15.968Z,51.75
2022-12-19T09:39:47.667Z,48.53
2022-12-19T09:42:35.086Z,41.45
2022-12-19T09:45:32.472Z,55.10
2022-12-19T09:48:01.288Z,45.38
2022-12-19T09:50:49.615Z,52.20
2022-12-19T09:53:27.997Z,46.03
2022-12-19T09:55:55.774Z,45.67
2022-12-19T09:58:36.548Z,46.53
2022-12-19T10:01:11.592Z,45.25
2022-12-19T10:03:52.106Z,59.67
2022-12-19T10:07:21.191Z,52.38
2022-12-19T10:11:26.967Z,45.53
2022-12-19T10:12:47.521Z,49.60
2022-12-19T10:15:10.616Z,43.88
2022-12-19T10:18:19.635Z,40.85
2022-12-19T10:21:03.042Z,42.45
2022-12-19T10:23:47.849Z,40.97
2022-12-19T10:26:23.443Z,46.92
2022-12-19T10:28:59.532Z,44.42
2022-12-19T10:31:53.524Z,49.60
2022-12-19T10:34:23.157Z,45.35
2022-12-19T10:40:00.346Z,41.20
2022-12-19T10:42:34.514Z,42.75
2022-12-19T10:45:06.349Z,41.17
2022-12-19T10:47:33.157Z,41.42
2022-12-19T10:50:05.441Z,44.45
2022-12-19T10:52:45.720Z,44.95
2022-12-19T10:55:28.470Z,45.13
2022-12-19T10:57:59.542Z,45.22
2022-12-19T11:00:27.914Z,42.00
2022-12-19T11:03:18.980Z,47.17
2022-12-19T11:05:57.568Z,43.65
2022-12-19T11:08:30.805Z,42.53
2022-12-19T11:12:28.494Z,44.35
2022-12-19T11:17:37.907Z,42.30
2022-12-19T11:23:29.551Z,48.63
2022-12-19T11:29:16.047Z,46.42
2022-12-19T11:29:40.718Z,37.47
2022-12-19T11:30:44.124Z,45.80
2022-12-19T11:30:47.661Z,42.72
2022-12-19T11:34:21.452Z,42.40
2022-12-19T11:37:10.940Z,42.10
2022-12-19T11:39:45.505Z,45.22
2022-12-19T11:42:46.042Z,43.47
2022-12-19T11:45:24.036Z,38.45
2022-12-19T11:47:58.765Z,41.03
2022-12-19T11:50:35.080Z,43.20
2022-12-19T11:53:18.886Z,41.83
2022-12-19T11:56:00.661Z,38.00
2022-12-19T11:58:29.480Z,37.53
2022-12-19T12:01:09.295Z,43.15
2022-12-19T12:03:55.181Z,44.88
2022-12-19T12:06:48.073Z,37.10
2022-12-19T12:12:59.705Z,36.40
2022-12-19T12:23:25.997Z,41.05
2022-12-19T12:30:28.407Z,47.42
2022-12-19T12:31:11.129Z,39.60
2022-12-19T12:31:21.870Z,41.40
2022-12-19T12:31:42.780Z,43.20
2022-12-19T12:31:44.953Z,49.40
2022-12-19T12:35:33.127Z,44.80
2022-12-19T12:38:14.127Z,48.22
2022-12-19T12:40:51.955Z,42.50
2022-12-19T12:44:08.276Z,39.03
2022-12-19T12:46:44.435Z,41.00
2022-12-19T12:49:44.239Z,41.67
2022-12-19T12:52:21.777Z,45.47
2022-12-19T12:54:50.350Z,44.92
2022-12-19T12:57:35.791Z,53.70
2022-12-19T13:00:15.405Z,46.60
2022-12-19T13:02:45.629Z,46.15
2022-12-19T13:05:43.175Z,49.47
2022-12-19T13:08:38.949Z,46.60
2022-12-19T13:11:38.160Z,44.33
2022-12-19T13:14:25.978Z,39.72
2022-12-19T13:16:54.038Z,46.55
2022-12-19T13:19:28.688Z,41.70
2022-12-19T13:22:05.279Z,40.28
2022-12-19T13:24:50.128Z,53.58
2022-12-19T13:27:19.822Z,45.85
2022-12-19T13:30:03.835Z,54.42
2022-12-19T13:32:53.557Z,41.28
2022-12-19T13:36:46.987Z,45.92
2022-12-19T13:39:56.783Z,51.53
2022-12-19T13:41:25.547Z,48.28
2022-12-19T13:43:58.683Z,40.95
2022-12-19T13:46:44.334Z,44.22
2022-12-19T13:49:19.928Z,45.33
2022-12-19T13:51:55.214Z,46.25
2022-12-19T13:54:32.926Z,52.38
2022-12-19T13:57:09.054Z,54.78
2022-12-19T13:59:39.891Z,57.78
2022-12-19T14:02:15.795Z,55.97
2022-12-19T14:04:45.598Z,55.28
2022-12-19T14:07:39.182Z,51.17
2022-12-19T14:11:34.264Z,50.63
2022-12-19T14:13:56.206Z,52.35
2022-12-19T14:16:16.957Z,49.08
2022-12-19T14:18:49.794Z,52.63
2022-12-19T14:22:10.701Z,59.45
2022-12-19T14:24:22.777Z,54.47
2022-12-19T14:28:26.077Z,55.97
2022-12-19T14:30:30.429Z,50.20
2022-12-19T14:33:40.419Z,57.20
2022-12-19T14:36:12.553Z,50.38
2022-12-19T14:39:24.086Z,54.53
2022-12-19T14:41:47.201Z,56.20
2022-12-19T14:52:08.449Z,53.63
2022-12-19T14:52:35.817Z,49.45
2022-12-19T14:54:38.006Z,57.67
2022-12-19T14:54:46.943Z,53.47
2022-12-19T14:56:57.648Z,53.95
2022-12-19T14:59:05.689Z,51.90
2022-12-19T15:01:34.908Z,57.55
2022-12-19T15:04:51.683Z,58.35
2022-12-19T15:07:11.268Z,57.85
2022-12-19T15:11:08.833Z,57.15
2022-12-19T15:14:47.788Z,62.05
2022-12-19T15:16:03.371Z,55.88
2022-12-19T15:18:33.200Z,56.50
2022-12-19T15:21:02.376Z,59.13
2022-12-19T15:23:30.177Z,65.38
2022-12-19T15:26:04.622Z,59.72
2022-12-19T15:28:43.245Z,58.22
2022-12-19T15:31:38.559Z,68.38
2022-12-19T15:34:46.334Z,63.67
2022-12-19T15:37:14.712Z,58.17
2022-12-19T15:39:42.143Z,65.93
2022-12-19T15:42:24.519Z,65.10
2022-12-19T15:44:53.485Z,65.55
2022-12-19T15:47:35.540Z,64.68
2022-12-19T15:50:12.621Z,63.67
2022-12-19T15:52:39.387Z,69.00
2022-12-19T15:55:07.012Z,61.00
2022-12-19T15:57:39.406Z,57.10
2022-12-19T16:00:16.901Z,58.42
2022-12-19T16:03:21.091Z,58.28
2022-12-19T16:05:30.722Z,60.25
2022-12-19T16:07:58.828Z,74.03
2022-12-19T16:10:27.008Z,77.88
2022-12-19T16:12:57.599Z,66.90
2022-12-19T16:15:33.990Z,68.57
2022-12-19T16:18:03.215Z,58.58
2022-12-19T16:20:39.549Z,62.63
2022-12-19T16:23:07.327Z,62.28
2022-12-19T16:25:43.079Z,64.07
2022-12-19T16:28:29.151Z,68.40
2022-12-19T16:30:57.013Z,62.80
2022-12-19T16:33:27.943Z,77.70
2022-12-19T16:36:04.223Z,78.53
2022-12-19T16:38:33.436Z,68.75
2022-12-19T16:41:01.616Z,69.10
2022-12-19T16:43:36.038Z,76.35
2022-12-19T16:46:05.817Z,71.60
2022-12-19T16:48:35.631Z,79.65
2022-12-19T16:51:02.804Z,82.25
2022-12-19T16:53:29.780Z,68.97
2022-12-19T16:55:57.360Z,66.80
2022-12-19T16:58:27.438Z,73.07
2022-12-19T17:00:55.375Z,69.85
2022-12-19T17:03:42.946Z,69.22
2022-12-19T17:06:18.240Z,60.47
2022-12-19T17:08:45.304Z,64.05
2022-12-19T17:11:22.284Z,66.68
2022-12-19T17:14:01.981Z,83.55
2022-12-19T17:16:31.052Z,92.07
2022-12-19T17:18:59.244Z,80.40
2022-12-19T17:21:26.034Z,61.97
2022-12-19T17:23:52.976Z,70.78
2022-12-19T17:26:19.826Z,63.75
2022-12-19T17:28:49.387Z,62.97
2022-12-19T17:31:25.794Z,60.50
2022-12-19T17:33:55.294Z,62.15
2022-12-19T17:36:26.814Z,69.80
2022-12-19T17:38:55.569Z,71.03
2022-12-19T17:41:22.342Z,74.10
2022-12-19T17:43:49.202Z,72.25
2022-12-19T17:46:21.341Z,66.72
2022-12-19T17:48:51.308Z,68.65
2022-12-19T17:51:21.506Z,71.32
2022-12-19T17:53:49.844Z,68.07
2022-12-19T17:56:19.957Z,61.78
2022-12-19T17:58:48.386Z,59.92
2022-12-19T18:01:25.025Z,61.67
2022-12-19T18:03:53.900Z,58.20
2022-12-19T18:06:21.393Z,55.15
2022-12-19T18:08:49.309Z,51.47
2022-12-19T18:11:25.132Z,64.25
2022-12-19T18:13:53.327Z,63.97
2022-12-19T18:16:25.696Z,52.33
2022-12-19T18:18:52.631Z,55.95
2022-12-19T18:21:22.351Z,50.72
2022-12-19T18:23:49.269Z,51.25
2022-12-19T18:26:16.518Z,55.78
2022-12-19T18:28:43.552Z,48.55
2022-12-19T18:31:25.874Z,50.97
2022-12-19T18:33:54.473Z,51.72
2022-12-19T18:36:27.548Z,50.25
2022-12-19T18:38:55.987Z,48.13
2022-12-19T18:41:24.057Z,48.72
2022-12-19T18:43:50.862Z,60.25
2022-12-19T18:46:24.822Z,48.63
2022-12-19T18:48:54.621Z,55.50
2022-12-19T18:51:23.149Z,59.15
2022-12-19T18:53:50.946Z,47.22
2022-12-19T18:56:17.900Z,55.55
2022-12-19T18:58:44.690Z,53.42
2022-12-19T19:01:23.659Z,51.70
2022-12-19T19:03:55.767Z,67.90
2022-12-19T19:06:25.899Z,57.67
2022-12-19T19:08:53.056Z,54.47
2022-12-19T19:11:23.408Z,54.05
2022-12-19T19:13:50.747Z,51.78
2022-12-19T19:16:21.549Z,49.67
2022-12-19T19:18:55.289Z,49.78
2022-12-19T19:21:26.074Z,42.28
2022-12-19T19:23:57.969Z,53.78
2022-12-19T19:26:24.927Z,44.63
2022-12-19T19:28:52.652Z,48.53
2022-12-19T19:31:23.774Z,40.80
2022-12-19T19:33:59.204Z,38.35
2022-12-19T19:36:29.403Z,39.85
2022-12-19T19:38:57.260Z,47.58
2022-12-19T19:41:29.556Z,51.80
2022-12-19T19:43:57.553Z,55.30
2022-12-19T19:46:24.497Z,53.45
2022-12-19T19:48:51.395Z,51.55
2022-12-19T19:51:18.764Z,51.53
2022-12-19T19:53:45.999Z,53.35
2022-12-19T19:56:12.936Z,53.00
2022-12-19T19:58:39.830Z,49.38
2022-12-19T20:01:08.931Z,39.63
2022-12-19T20:03:35.939Z,48.83
2022-12-19T20:06:03.755Z,47.90
2022-12-19T20:08:38.598Z,39.25
2022-12-19T20:11:07.042Z,45.45
2022-12-19T20:13:34.198Z,43.55
2022-12-19T20:16:06.701Z,46.40
2022-12-19T20:18:34.040Z,48.45
2022-12-19T20:21:00.969Z,49.17
2022-12-19T20:23:27.995Z,55.15
2022-12-19T20:25:55.044Z,55.13
2022-12-19T20:28:21.777Z,52.92
2022-12-19T20:30:50.558Z,50.08
2022-12-19T20:33:17.397Z,50.45
2022-12-19T20:35:44.443Z,52.55
2022-12-19T20:38:11.234Z,46.85
2022-12-19T20:40:38.030Z,53.45
2022-12-19T20:43:04.873Z,48.67
2022-12-19T20:45:31.724Z,46.33
2022-12-19T20:47:58.491Z,41.22
2022-12-19T20:50:25.351Z,39.33
2022-12-19T20:52:52.127Z,40.30
2022-12-19T20:55:18.881Z,38.67
2022-12-19T20:57:45.731Z,37.08
2022-12-19T21:00:14.833Z,37.60
2022-12-19T21:03:17.335Z,38.90
2022-12-19T21:05:28.586Z,35.53
2022-12-19T21:07:55.383Z,42.08
2022-12-19T21:10:22.160Z,44.80
2022-12-19T21:12:48.881Z,42.40
2022-12-19T21:15:15.815Z,36.95
2022-12-19T21:17:42.623Z,38.50
2022-12-19T21:20:10.241Z,34.40
2022-12-19T21:22:37.150Z,36.50
2022-12-19T21:25:05.658Z,29.95
2022-12-19T21:27:32.436Z,37.13
2022-12-19T21:30:00.414Z,34.13
2022-12-19T21:32:27.633Z,27.05
2022-12-19T21:34:54.771Z,32.13
2022-12-19T21:37:22.015Z,39.47
2022-12-19T21:39:49.087Z,47.90
2022-12-19T21:42:15.914Z,50.65
2022-12-19T21:44:42.773Z,38.08
2022-12-19T21:47:09.638Z,39.95
2022-12-19T21:49:36.541Z,45.05
2022-12-19T21:52:03.333Z,42.83
2022-12-19T21:54:30.095Z,40.15
2022-12-19T21:56:56.928Z,33.95
2022-12-19T21:59:23.774Z,41.15
2022-12-19T22:01:50.577Z,31.83
2022-12-19T22:04:21.091Z,32.45
2022-12-19T22:06:48.910Z,35.30
2022-12-19T22:09:18.693Z,47.60
2022-12-19T22:11:45.851Z,40.53
2022-12-19T22:14:16.722Z,38.55
2022-12-19T22:16:43.592Z,41.53
2022-12-19T22:19:13.927Z,42.95
2022-12-19T22:21:40.753Z,40.90
2022-12-19T22:24:08.061Z,34.83
2022-12-19T22:26:35.639Z,35.00
2022-12-19T22:29:07.399Z,26.33
2022-12-19T22:31:35.433Z,35.97
2022-12-19T22:34:08.950Z,33.20
2022-12-19T22:36:37.206Z,37.13
2022-12-19T22:39:06.697Z,31.27
2022-12-19T22:41:34.900Z,37.40
2022-12-19T22:44:02.910Z,31.83
2022-12-19T22:46:38.394Z,33.92
2022-12-19T22:49:08.850Z,36.53
2022-12-19T22:51:36.727Z,41.25
2022-12-19T22:54:04.543Z,42.35
2022-12-19T22:56:33.242Z,37.10
2022-12-19T22:59:02.441Z,39.95
2022-12-19T23:01:32.228Z,40.42
2022-12-19T23:04:00.658Z,35.58
2022-12-19T23:06:29.277Z,39.60
2022-12-19T23:08:56.234Z,36.53
2022-12-19T23:11:30.587Z,32.70
2022-12-19T23:13:57.485Z,30.80
2022-12-19T23:16:24.427Z,38.38
2022-12-19T23:18:51.263Z,36.58
2022-12-19T23:21:21.191Z,37.28
2022-12-19T23:23:49.890Z,43.05
2022-12-19T23:26:28.448Z,34.80
2022-12-19T23:29:10.414Z,30.52
2022-12-19T23:31:43.132Z,29.13
2022-12-19T23:34:10.593Z,33.53
2022-12-19T23:37:09.621Z,31.17
2022-12-19T23:39:25.115Z,29.00
2022-12-19T23:41:51.843Z,28.55
2022-12-19T23:44:18.818Z,31.67
2022-12-19T23:46:45.638Z,30.48
2022-12-19T23:49:12.441Z,32.22
2022-12-19T23:51:39.218Z,28.27
2022-12-19T23:54:06.183Z,31.55
2022-12-19T23:56:33.203Z,25.98
2022-12-19T23:59:00.087Z,28.67
